Time;durP1;ratioP1;P1;durP2;ratioP2;P2;SDS_P1;SDS_P2;PMS_P1;PMS_P2;Temp;Humidity;BMP_temperature;BMP_pressure;BME280_temperature;BME280_humidity;BME280_pressure;Samples;Min_cycle;Max_cycle;Signal;HPM_P1;HPM_P2
2022/01/29 00:02:25;;;;;;;17.83;7.10;;;-2.20;99.90;;;;;;5070009;28;20021;-81
2022/01/29 00:04:51;;;;;;;19.60;6.93;;;-1.60;99.90;;;;;;5080178;28;20035;-81
2022/01/29 00:07:17;;;;;;;18.45;7.30;;;-1.10;99.90;;;;;;5071542;28;20020;-81
2022/01/29 00:09:44;;;;;;;18.92;7.00;;;-1.30;99.90;;;;;;5051836;28;20031;-81
2022/01/29 00:12:10;;;;;;;15.88;6.50;;;-2.30;99.90;;;;;;5060705;28;20017;-82
2022/01/29 00:14:36;;;;;;;21.75;8.57;;;-2.40;99.90;;;;;;5063910;28;20024;-82
2022/01/29 00:17:03;;;;;;;17.92;8.10;;;-0.90;99.90;;;;;;5061941;28;20118;-85
2022/01/29 00:19:29;;;;;;;21.67;7.78;;;-2.10;99.90;;;;;;5049454;28;20377;-82
2022/01/29 00:21:54;;;;;;;21.00;9.15;;;-1.60;99.90;;;;;;5049555;28;20028;-83
2022/01/29 00:24:20;;;;;;;18.27;7.80;;;-0.80;99.90;;;;;;5048638;28;20111;-83
2022/01/29 00:26:46;;;;;;;18.02;8.10;;;-1.80;99.90;;;;;;5049005;28;20032;-82
2022/01/29 00:29:21;;;;;;;21.63;8.55;;;-1.70;99.90;;;;;;5050131;28;20485;-82
2022/01/29 00:31:46;;;;;;;20.33;8.85;;;-1.10;99.90;;;;;;5063436;28;20051;-81
2022/01/29 00:34:12;;;;;;;18.15;8.73;;;-2.10;99.90;;;;;;5074814;28;20016;-82
2022/01/29 00:36:38;;;;;;;17.63;7.78;;;-1.10;99.90;;;;;;5075373;28;20080;-81
2022/01/29 00:39:04;;;;;;;18.42;9.10;;;-2.50;99.90;;;;;;5070628;28;20518;-81
2022/01/29 00:41:30;;;;;;;18.20;7.43;;;-1.90;99.90;;;;;;5072419;28;20473;-81
2022/01/29 00:43:56;;;;;;;17.95;9.13;;;-2.70;99.90;;;;;;5075453;28;20119;-81
2022/01/29 00:46:22;;;;;;;19.45;8.38;;;-2.60;99.90;;;;;;5071914;28;20028;-82
2022/01/29 00:48:47;;;;;;;19.00;8.23;;;-1.50;99.90;;;;;;5071053;28;20559;-81
2022/01/29 00:51:13;;;;;;;20.08;7.85;;;-1.20;99.90;;;;;;5071861;28;20092;-84
2022/01/29 00:53:39;;;;;;;30.65;11.10;;;-2.60;99.90;;;;;;5069950;28;20028;-86
2022/01/29 00:56:06;;;;;;;24.33;9.88;;;-2.80;99.90;;;;;;5070210;28;20036;-81
2022/01/29 00:58:33;;;;;;;21.92;8.10;;;-2.80;99.90;;;;;;5070733;28;20089;-82
2022/01/29 01:00:59;;;;;;;18.90;6.50;;;-1.40;99.90;;;;;;5071635;28;20448;-80
2022/01/29 01:03:25;;;;;;;18.58;7.47;;;-1.40;99.90;;;;;;5068505;28;20020;-79
2022/01/29 01:05:51;;;;;;;20.25;8.02;;;-1.90;99.90;;;;;;5069412;28;20035;-79
2022/01/29 01:08:17;;;;;;;19.90;8.23;;;-1.70;99.90;;;;;;5068657;28;20028;-80
2022/01/29 01:10:42;;;;;;;21.45;8.57;;;-2.60;99.90;;;;;;5067853;28;20024;-80
2022/01/29 01:13:08;;;;;;;22.48;9.85;;;-1.50;99.90;;;;;;5069572;28;20121;-80
2022/01/29 01:15:34;;;;;;;20.88;10.38;;;-2.90;99.90;;;;;;5067920;28;20274;-80
2022/01/29 01:18:00;;;;;;;22.13;9.30;;;-3.00;99.90;;;;;;5068094;28;20024;-80
2022/01/29 01:20:26;;;;;;;23.05;9.63;;;-3.10;99.90;;;;;;5050564;28;20043;-81
2022/01/29 01:22:51;;;;;;;26.73;9.15;;;-2.70;99.90;;;;;;5055248;28;20028;-79
2022/01/29 01:25:17;;;;;;;23.13;9.50;;;-2.80;99.90;;;;;;5080933;28;20039;-80
2022/01/29 01:27:43;;;;;;;29.25;9.75;;;-1.60;99.90;;;;;;5081578;28;20066;-79
2022/01/29 01:30:09;;;;;;;30.20;11.18;;;-1.60;99.90;;;;;;5068315;28;20104;-80
2022/01/29 01:32:36;;;;;;;30.52;12.13;;;-2.70;99.90;;;;;;5061073;28;20061;-80
2022/01/29 01:35:21;;;;;;;25.13;11.40;;;-1.00;99.90;;;;;;5061552;28;20048;-80
2022/01/29 01:38:08;;;;;;;23.52;10.18;;;-2.90;99.90;;;;;;5059831;28;20048;-79
2022/01/29 01:40:34;;;;;;;27.40;11.00;;;-2.90;99.90;;;;;;5060292;28;20337;-79
2022/01/29 01:43:01;;;;;;;24.35;10.05;;;-2.80;99.90;;;;;;5078911;28;20082;-79
2022/01/29 01:45:30;;;;;;;28.25;12.18;;;-1.90;99.90;;;;;;5075570;28;20028;-82
2022/01/29 01:47:57;;;;;;;28.20;11.05;;;-2.30;99.90;;;;;;5081226;28;20121;-79
2022/01/29 01:50:24;;;;;;;28.13;10.38;;;-1.80;99.90;;;;;;5075609;28;20095;-79
2022/01/29 01:52:50;;;;;;;27.15;10.25;;;-2.70;99.90;;;;;;5061576;28;20012;-79
2022/01/29 01:55:16;;;;;;;21.13;9.02;;;-0.70;99.90;;;;;;5059218;28;20056;-81
2022/01/29 01:57:43;;;;;;;23.10;10.07;;;;;;;;;;5062373;28;20025;-81
2022/01/29 02:00:09;;;;;;;25.30;9.30;;;-2.40;99.90;;;;;;5061729;28;20048;-83
2022/01/29 02:02:35;;;;;;;25.13;8.77;;;-2.50;99.90;;;;;;5077291;28;20022;-81
2022/01/29 02:05:01;;;;;;;21.95;8.15;;;-2.40;99.90;;;;;;5089501;28;20044;-83
2022/01/29 02:07:27;;;;;;;21.63;9.48;;;-2.40;99.90;;;;;;5093604;28;20020;-81
2022/01/29 02:09:53;;;;;;;26.60;10.23;;;-2.30;99.90;;;;;;5117898;28;20020;-81
2022/01/29 02:12:19;;;;;;;25.73;8.63;;;-1.20;99.90;;;;;;5081725;28;20031;-86
2022/01/29 02:14:45;;;;;;;24.15;9.55;;;-1.20;99.90;;;;;;5085833;28;20174;-80
2022/01/29 02:17:11;;;;;;;23.15;9.65;;;-2.10;99.90;;;;;;5081385;28;20031;-79
2022/01/29 02:19:37;;;;;;;22.08;9.68;;;-1.80;99.90;;;;;;5082204;28;20024;-80
2022/01/29 02:22:04;;;;;;;24.20;9.27;;;-2.00;99.90;;;;;;5082368;28;20020;-79
2022/01/29 02:24:30;;;;;;;24.67;9.73;;;-2.00;99.90;;;;;;5114973;28;20065;-79
2022/01/29 02:26:55;;;;;;;20.58;8.95;;;-1.10;99.90;;;;;;5081450;28;20028;-79
2022/01/29 02:29:21;;;;;;;27.30;9.73;;;-1.90;99.90;;;;;;5079222;28;20258;-80
2022/01/29 02:31:56;;;;;;;19.05;7.60;;;-0.30;99.90;;;;;;5080893;28;20119;-79
2022/01/29 02:34:23;;;;;;;20.27;8.52;;;-1.90;99.90;;;;;;5081788;28;20016;-80
2022/01/29 02:36:50;;;;;;;20.60;8.18;;;-0.70;99.90;;;;;;5081454;28;20204;-80
2022/01/29 02:39:17;;;;;;;20.67;7.95;;;-1.60;99.90;;;;;;5081350;28;20059;-80
2022/01/29 02:41:44;;;;;;;20.95;8.18;;;-1.20;99.90;;;;;;5076888;28;20029;-80
2022/01/29 02:44:17;;;;;;;16.80;6.90;;;-1.30;99.90;;;;;;5069247;28;20078;-80
2022/01/29 02:49:21;;;;;;;22.80;9.30;;;-0.60;99.90;;;;;;5070727;28;20028;-80
2022/01/29 02:51:56;;;;;;;27.55;9.63;;;-0.80;99.90;;;;;;5086649;28;20025;-79
2022/01/29 02:54:25;;;;;;;23.95;8.73;;;-1.70;99.90;;;;;;5070874;28;20123;-79
2022/01/29 02:56:51;;;;;;;19.50;8.70;;;-1.60;99.90;;;;;;5070766;28;20021;-79
2022/01/29 02:59:17;;;;;;;24.02;7.45;;;-1.70;99.90;;;;;;5070958;28;20385;-80
2022/01/29 03:01:42;;;;;;;19.83;8.35;;;-1.40;99.90;;;;;;5071655;28;20033;-79
2022/01/29 03:04:09;;;;;;;19.52;9.13;;;-0.70;99.90;;;;;;5072132;28;20033;-80
2022/01/29 03:06:35;;;;;;;20.02;9.23;;;-1.50;99.90;;;;;;5070852;28;20017;-78
2022/01/29 03:09:01;;;;;;;21.48;8.63;;;-0.70;99.90;;;;;;5070905;28;20378;-80
2022/01/29 03:11:27;;;;;;;22.80;7.88;;;-0.40;99.90;;;;;;5070807;28;20060;-80
2022/01/29 03:13:53;;;;;;;20.85;9.73;;;-1.30;99.90;;;;;;5069987;28;20603;-80
2022/01/29 03:16:19;;;;;;;17.50;8.40;;;-1.70;99.90;;;;;;5071802;28;20096;-80
2022/01/29 03:18:45;;;;;;;18.42;8.48;;;-0.60;99.90;;;;;;5071672;28;20024;-79
2022/01/29 03:21:11;;;;;;;23.85;8.82;;;-0.30;99.90;;;;;;5070278;28;20388;-79
2022/01/29 03:23:37;;;;;;;24.38;8.40;;;-0.50;99.90;;;;;;5070666;28;20020;-78
2022/01/29 03:26:04;;;;;;;24.38;8.02;;;-1.30;99.90;;;;;;5069240;28;20027;-79
2022/01/29 03:28:30;;;;;;;22.15;9.07;;;-1.70;99.90;;;;;;5069233;28;20117;-79
2022/01/29 03:30:56;;;;;;;19.80;8.93;;;-0.60;99.90;;;;;;5070468;28;20060;-77
2022/01/29 03:33:23;;;;;;;26.95;10.38;;;-0.90;99.90;;;;;;5068791;28;20127;-78
2022/01/29 03:35:50;;;;;;;20.67;8.70;;;-1.60;99.90;;;;;;5069656;28;20354;-79
2022/01/29 03:38:16;;;;;;;24.95;9.93;;;-0.40;99.90;;;;;;5069430;28;20028;-78
2022/01/29 03:40:44;;;;;;;24.73;8.50;;;-1.80;99.90;;;;;;5068252;28;20040;-78
2022/01/29 03:43:13;;;;;;;22.58;9.90;;;-1.40;99.90;;;;;;5085426;28;20025;-80
2022/01/29 03:45:39;;;;;;;19.08;8.23;;;-1.70;99.90;;;;;;5070516;28;20050;-80
2022/01/29 03:48:06;;;;;;;16.08;7.70;;;-1.40;99.90;;;;;;5069555;28;20054;-79
2022/01/29 03:50:33;;;;;;;23.25;10.38;;;-1.90;99.90;;;;;;5070893;28;20056;-80
2022/01/29 03:52:59;;;;;;;22.75;9.07;;;-1.90;99.90;;;;;;5070980;28;20066;-79
2022/01/29 03:55:25;;;;;;;19.88;10.25;;;-1.00;99.90;;;;;;5070623;28;20099;-79
2022/01/29 03:57:50;;;;;;;16.60;6.90;;;-1.90;99.90;;;;;;5069376;28;20028;-79
2022/01/29 04:00:16;;;;;;;21.65;7.47;;;-0.90;99.90;;;;;;5068999;28;20028;-80
2022/01/29 04:02:42;;;;;;;18.77;6.72;;;-1.70;99.90;;;;;;5069851;28;20440;-79
2022/01/29 04:05:08;;;;;;;15.60;6.35;;;-1.10;99.90;;;;;;5069408;28;20115;-79
2022/01/29 04:07:34;;;;;;;20.05;7.95;;;-1.10;99.90;;;;;;5068828;28;20025;-78
2022/01/29 04:10:00;;;;;;;16.80;7.80;;;-1.10;99.90;;;;;;5072099;28;20359;-80
2022/01/29 04:12:29;;;;;;;16.27;7.15;;;-1.50;99.90;;;;;;5081707;28;20308;-80
2022/01/29 04:14:57;;;;;;;21.73;7.72;;;-1.60;99.90;;;;;;5085059;28;20096;-80
2022/01/29 04:17:23;;;;;;;20.63;7.40;;;-1.50;99.90;;;;;;5084545;28;20339;-80
2022/01/29 04:19:48;;;;;;;15.05;7.22;;;-0.90;99.90;;;;;;5082635;28;20028;-79
2022/01/29 04:22:14;;;;;;;15.05;6.70;;;;;;;;;;5083886;28;20339;-80
2022/01/29 04:24:40;;;;;;;10.45;4.43;;;-1.70;99.90;;;;;;5085179;28;20029;-80
2022/01/29 04:27:15;;;;;;;18.58;6.97;;;-0.30;99.90;;;;;;5085267;28;20391;-80
2022/01/29 04:29:53;;;;;;;12.75;6.05;;;-1.30;99.90;;;;;;5084653;28;20025;-80
2022/01/29 04:32:24;;;;;;;16.33;5.40;;;-1.40;99.90;;;;;;5083609;28;20115;-80
2022/01/29 04:34:50;;;;;;;12.85;6.13;;;-1.10;99.90;;;;;;5083985;28;20090;-80
2022/01/29 04:37:16;;;;;;;12.00;5.60;;;-1.00;99.90;;;;;;5082051;28;20403;-81
2022/01/29 04:39:41;;;;;;;16.13;6.35;;;-1.00;99.90;;;;;;5082117;28;20087;-80
2022/01/29 04:42:07;;;;;;;14.80;6.45;;;-0.90;99.90;;;;;;5081862;28;20025;-82
2022/01/29 04:44:33;;;;;;;14.82;6.00;;;0.60;99.90;;;;;;5081656;28;20054;-80
2022/01/29 04:46:58;;;;;;;20.58;6.85;;;-0.90;99.90;;;;;;5081640;28;20032;-81
2022/01/29 04:49:24;;;;;;;16.40;5.93;;;-0.30;99.90;;;;;;5081807;28;20109;-80
2022/01/29 04:51:49;;;;;;;15.27;5.85;;;-0.30;99.90;;;;;;5082318;28;20142;-81
2022/01/29 04:54:15;;;;;;;19.15;6.28;;;-1.00;99.90;;;;;;5082917;28;20028;-80
2022/01/29 04:56:41;;;;;;;12.02;4.95;;;-0.70;99.90;;;;;;5081250;28;20044;-79
2022/01/29 04:59:06;;;;;;;17.45;5.85;;;-0.70;99.90;;;;;;5082003;28;20266;-80
2022/01/29 05:01:32;;;;;;;15.65;4.90;;;-0.90;99.90;;;;;;5082662;28;20227;-81
2022/01/29 05:03:58;;;;;;;13.70;5.78;;;-0.90;99.90;;;;;;5083058;28;20016;-80
2022/01/29 05:06:23;;;;;;;13.48;4.88;;;-0.90;99.90;;;;;;5082596;28;20024;-80
2022/01/29 05:08:49;;;;;;;12.23;4.75;;;-0.80;99.90;;;;;;5080683;28;20036;-80
2022/01/29 05:11:16;;;;;;;14.85;4.57;;;0.30;99.90;;;;;;5081167;28;20194;-80
2022/01/29 05:13:42;;;;;;;11.60;5.63;;;-0.80;99.90;;;;;;5081689;28;20027;-80
2022/01/29 05:27:07;;;;;;;11.15;5.40;;;-1.00;99.90;;;;;;5082190;28;20020;-79
2022/01/29 05:29:33;;;;;;;10.48;4.45;;;-1.00;99.90;;;;;;5080901;28;20028;-78
2022/01/29 05:32:09;;;;;;;13.43;4.90;;;-0.50;99.90;;;;;;5081118;28;20055;-80
2022/01/29 05:34:35;;;;;;;13.38;6.38;;;-1.20;99.90;;;;;;5081737;28;20028;-79
2022/01/29 05:37:02;;;;;;;14.32;5.30;;;-1.10;99.90;;;;;;5080648;28;20419;-82
2022/01/29 05:39:28;;;;;;;14.30;5.90;;;-1.00;99.90;;;;;;5080483;28;20055;-80
2022/01/29 05:41:54;;;;;;;15.75;6.47;;;-1.10;99.90;;;;;;5079905;28;20028;-79
2022/01/29 05:44:21;;;;;;;15.43;6.30;;;0.20;99.90;;;;;;5081662;28;20047;-80
2022/01/29 05:46:46;;;;;;;15.75;6.82;;;-1.10;99.90;;;;;;5080878;28;20020;-79
2022/01/29 05:49:12;;;;;;;17.67;6.78;;;-1.10;99.90;;;;;;5080102;28;20096;-79
2022/01/29 05:51:38;;;;;;;15.63;8.30;;;-1.00;99.90;;;;;;5080001;28;20397;-80
2022/01/29 05:54:03;;;;;;;13.48;5.22;;;-0.80;99.90;;;;;;5080627;28;20066;-79
2022/01/29 05:56:29;;;;;;;18.05;7.35;;;-0.50;99.90;;;;;;5081241;28;20024;-81
2022/01/29 05:58:56;;;;;;;15.68;5.70;;;-1.10;99.90;;;;;;5080033;28;20031;-80
2022/01/29 06:01:22;;;;;;;17.15;6.60;;;-1.10;99.90;;;;;;5097015;28;20063;-80
2022/01/29 06:03:48;;;;;;;11.23;4.70;;;-0.70;99.90;;;;;;5079688;28;20012;-80
2022/01/29 06:06:14;;;;;;;16.67;6.32;;;-0.60;99.90;;;;;;5079761;28;20020;-79
2022/01/29 06:08:40;;;;;;;16.25;7.22;;;-0.90;99.90;;;;;;5080964;28;20020;-80
2022/01/29 06:11:06;;;;;;;15.75;6.40;;;-0.50;99.90;;;;;;5079119;28;20033;-80
2022/01/29 06:13:31;;;;;;;16.15;5.97;;;-1.00;99.90;;;;;;5081495;28;20194;-80
2022/01/29 06:15:57;;;;;;;14.43;4.30;;;-0.80;99.90;;;;;;5080277;28;20027;-80
2022/01/29 06:18:24;;;;;;;16.58;6.05;;;-0.60;99.90;;;;;;5080856;28;20024;-80
2022/01/29 06:20:53;;;;;;;16.52;6.82;;;-1.00;99.90;;;;;;5079764;28;20036;-80
2022/01/29 06:23:29;;;;;;;14.27;6.00;;;-1.00;99.90;;;;;;5096370;28;20185;-80
2022/01/29 06:25:59;;;;;;;12.93;5.57;;;-0.40;99.90;;;;;;5079628;28;20276;-81
2022/01/29 06:28:25;;;;;;;11.32;4.85;;;-1.00;99.90;;;;;;5080629;28;20062;-78
2022/01/29 06:30:50;;;;;;;14.02;6.15;;;-0.80;99.90;;;;;;5079844;28;20020;-81
2022/01/29 06:33:16;;;;;;;14.68;5.85;;;-0.90;99.90;;;;;;5079550;28;20056;-82
2022/01/29 06:35:43;;;;;;;15.30;5.63;;;-0.90;99.90;;;;;;5081793;28;20335;-83
2022/01/29 06:38:12;;;;;;;14.38;6.03;;;-0.90;99.90;;;;;;5080408;28;20312;-80
2022/01/29 06:40:38;;;;;;;13.88;5.25;;;-0.80;99.90;;;;;;5059524;28;20114;-79
2022/01/29 06:43:05;;;;;;;15.80;5.45;;;-0.40;99.90;;;;;;5055080;28;20059;-79
2022/01/29 06:45:32;;;;;;;8.30;4.72;;;-0.60;99.90;;;;;;5071892;28;20024;-79
2022/01/29 06:47:58;;;;;;;15.15;6.20;;;-0.80;99.90;;;;;;5093985;28;20020;-79
2022/01/29 06:50:24;;;;;;;12.48;4.88;;;-0.70;99.90;;;;;;5066161;28;20317;-78
2022/01/29 06:52:50;;;;;;;12.55;5.03;;;0.50;99.90;;;;;;5060608;28;20025;-78
2022/01/29 06:55:17;;;;;;;12.60;5.25;;;-0.70;99.90;;;;;;5060942;28;20017;-78
2022/01/29 06:57:42;;;;;;;19.63;7.45;;;1.00;99.90;;;;;;5071911;28;20031;-79
2022/01/29 07:00:09;;;;;;;14.98;6.47;;;-0.70;99.90;;;;;;5074980;28;20163;-78
2022/01/29 07:02:36;;;;;;;9.52;5.18;;;-0.70;99.90;;;;;;5071421;28;20107;-79
2022/01/29 07:05:06;;;;;;;14.32;6.78;;;-0.30;99.90;;;;;;5058770;28;20021;-81
2022/01/29 07:07:32;;;;;;;11.80;5.00;;;-0.60;99.90;;;;;;5061762;28;20066;-79
2022/01/29 07:09:58;;;;;;;17.50;6.05;;;-0.50;99.90;;;;;;5068192;28;20086;-79
2022/01/29 07:12:24;;;;;;;14.30;6.28;;;-0.60;99.90;;;;;;5066684;28;20025;-80
2022/01/29 07:14:50;;;;;;;23.98;8.07;;;0.30;99.90;;;;;;5058631;28;20053;-79
2022/01/29 07:17:17;;;;;;;18.75;8.55;;;0.80;99.90;;;;;;5070162;28;20086;-83
2022/01/29 07:19:46;;;;;;;17.50;6.10;;;-0.60;99.90;;;;;;5062247;28;20198;-79
2022/01/29 07:22:12;;;;;;;10.05;4.07;;;-0.50;99.90;;;;;;5057917;28;20056;-80
2022/01/29 07:24:39;;;;;;;14.35;5.22;;;-0.50;99.90;;;;;;5058071;28;20103;-79
2022/01/29 07:27:05;;;;;;;10.60;5.72;;;-0.10;99.90;;;;;;5058464;28;20264;-81
2022/01/29 07:29:31;;;;;;;13.02;4.90;;;-0.60;99.90;;;;;;5053487;28;20104;-83
2022/01/29 07:31:57;;;;;;;14.80;5.30;;;-0.60;99.90;;;;;;5069335;28;20217;-79
2022/01/29 07:34:25;;;;;;;20.60;9.05;;;-0.60;99.90;;;;;;5060993;28;20029;-81
2022/01/29 07:36:55;;;;;;;19.15;7.20;;;-0.60;99.90;;;;;;5059787;28;20024;-80
2022/01/29 07:39:22;;;;;;;25.75;9.57;;;-0.50;99.90;;;;;;5077236;28;20086;-81
2022/01/29 07:41:48;;;;;;;17.95;6.95;;;-0.60;99.90;;;;;;5060684;28;20064;-79
2022/01/29 07:44:15;;;;;;;16.77;7.18;;;-0.60;99.90;;;;;;5061256;28;20016;-85
2022/01/29 07:46:41;;;;;;;18.80;5.18;;;-0.40;99.90;;;;;;5059424;28;20020;-78
2022/01/29 07:49:07;;;;;;;9.57;4.32;;;-0.10;99.90;;;;;;5076360;28;20028;-78
2022/01/29 07:51:32;;;;;;;19.65;7.15;;;-0.70;99.90;;;;;;5068165;28;20039;-79
2022/01/29 07:53:58;;;;;;;16.23;6.53;;;0.90;99.90;;;;;;5040431;28;20383;-79
2022/01/29 07:56:24;;;;;;;14.60;5.82;;;-0.80;99.90;;;;;;5040238;28;20028;-81
2022/01/29 07:58:50;;;;;;;11.75;5.47;;;-0.90;99.90;;;;;;5065534;28;20021;-80
2022/01/29 08:01:17;;;;;;;12.93;5.40;;;-0.90;99.90;;;;;;5038718;28;20032;-79
2022/01/29 08:03:50;;;;;;;13.57;5.57;;;-0.90;99.90;;;;;;5060641;28;20017;-83
2022/01/29 08:06:18;;;;;;;11.15;5.80;;;-1.00;99.90;;;;;;5078960;28;20100;-79
2022/01/29 08:08:44;;;;;;;14.43;5.45;;;-0.90;99.90;;;;;;5060596;28;20048;-80
2022/01/29 08:11:12;;;;;;;12.70;6.20;;;-0.80;99.90;;;;;;5065977;28;20097;-81
2022/01/29 08:13:38;;;;;;;10.45;5.65;;;-0.70;99.90;;;;;;5063429;28;20147;-82
2022/01/29 08:16:04;;;;;;;12.02;4.78;;;-0.80;99.90;;;;;;5059264;28;20312;-82
2022/01/29 08:18:30;;;;;;;10.60;4.93;;;-0.80;99.90;;;;;;5079818;28;20239;-81
2022/01/29 08:20:55;;;;;;;9.77;5.95;;;-0.80;99.90;;;;;;5078162;28;20506;-80
2022/01/29 08:23:22;;;;;;;13.45;5.85;;;-0.40;99.90;;;;;;5077046;28;20024;-80
2022/01/29 08:25:48;;;;;;;12.43;4.20;;;-0.80;99.90;;;;;;5077218;28;20067;-80
2022/01/29 08:28:15;;;;;;;12.13;4.40;;;-0.80;99.90;;;;;;5059834;28;20021;-81
2022/01/29 08:30:41;;;;;;;13.13;5.25;;;-0.80;99.90;;;;;;5060840;28;20419;-78
2022/01/29 08:33:08;;;;;;;12.32;6.13;;;-0.80;99.90;;;;;;5078392;28;20044;-79
2022/01/29 08:35:34;;;;;;;14.30;5.70;;;-0.90;99.90;;;;;;5075675;28;20506;-79
2022/01/29 08:38:00;;;;;;;12.02;5.18;;;-0.90;99.90;;;;;;5060991;28;20272;-81
2022/01/29 08:40:27;;;;;;;16.17;4.88;;;-0.90;99.90;;;;;;5066163;28;20037;-81
2022/01/29 08:42:53;;;;;;;10.45;5.55;;;-0.70;99.90;;;;;;5067073;28;20025;-77
2022/01/29 08:45:20;;;;;;;9.77;4.88;;;0.30;99.90;;;;;;5081110;28;20035;-78
2022/01/29 08:47:46;;;;;;;10.10;4.53;;;-0.70;99.90;;;;;;5088121;28;20056;-77
2022/01/29 08:50:16;;;;;;;11.77;4.53;;;-0.60;99.90;;;;;;5087325;28;20036;-76
2022/01/29 08:52:42;;;;;;;12.18;4.93;;;0.70;99.90;;;;;;5069484;28;20054;-77
2022/01/29 08:55:10;;;;;;;10.35;3.85;;;-0.40;99.90;;;;;;5058653;28;20317;-78
2022/01/29 08:57:35;;;;;;;8.57;4.60;;;-0.30;99.90;;;;;;5023137;28;20033;-80
2022/01/29 09:00:03;;;;;;;16.80;5.60;;;1.10;99.90;;;;;;5060759;28;20050;-84
2022/01/29 09:02:29;;;;;;;12.07;4.22;;;0.00;99.90;;;;;;5051484;28;20028;-77
2022/01/29 09:04:57;;;;;;;9.02;4.70;;;0.30;99.90;;;;;;5070683;28;20088;-78
2022/01/29 09:07:28;;;;;;;7.53;4.20;;;0.90;99.90;;;;;;5052802;28;20021;-76
2022/01/29 09:09:54;;;;;;;13.35;5.50;;;0.50;99.90;;;;;;5069192;28;20017;-76
2022/01/29 09:12:20;;;;;;;10.40;4.78;;;0.60;99.90;;;;;;5072222;28;20009;-83
2022/01/29 09:14:46;;;;;;;6.97;4.10;;;0.80;99.90;;;;;;5059921;28;20051;-83
2022/01/29 09:17:12;;;;;;;8.20;4.10;;;0.80;99.90;;;;;;5043595;28;20252;-81
2022/01/29 09:19:38;;;;;;;7.65;4.05;;;0.70;99.90;;;;;;5052969;28;20092;-77
2022/01/29 09:22:04;;;;;;;10.30;3.13;;;0.80;99.90;;;;;;5067246;28;20285;-79
2022/01/29 09:24:30;;;;;;;11.80;4.35;;;1.60;99.90;;;;;;5044360;28;20057;-80
2022/01/29 09:26:56;;;;;;;11.52;3.88;;;1.00;99.90;;;;;;5063749;28;20225;-81
2022/01/29 09:29:22;;;;;;;16.42;4.88;;;1.00;99.90;;;;;;5042711;28;20048;-80
2022/01/29 09:31:47;;;;;;;9.32;3.85;;;1.10;99.90;;;;;;5066236;28;20172;-75
2022/01/29 09:34:13;;;;;;;9.27;4.88;;;1.20;99.90;;;;;;5062155;28;20031;-76
2022/01/29 09:36:39;;;;;;;10.38;5.15;;;1.40;99.90;;;;;;5050440;28;20029;-76
2022/01/29 09:39:05;;;;;;;5.85;2.72;;;1.50;99.90;;;;;;5066947;28;20032;-85
2022/01/29 09:41:32;;;;;;;7.95;4.70;;;1.50;99.90;;;;;;5070971;28;20507;-79
2022/01/29 09:43:57;;;;;;;8.77;3.97;;;2.50;99.90;;;;;;5090996;28;20028;-80
2022/01/29 09:46:27;;;;;;;5.60;3.05;;;1.60;99.90;;;;;;5082660;28;20120;-74
2022/01/29 09:48:54;;;;;;;4.95;2.85;;;1.70;99.90;;;;;;5088191;28;20412;-74
2022/01/29 09:51:19;;;;;;;5.88;3.20;;;1.70;99.90;;;;;;5086802;28;20074;-78
2022/01/29 09:53:45;;;;;;;9.02;3.08;;;1.80;99.90;;;;;;5089089;28;20060;-75
2022/01/29 09:56:15;;;;;;;4.63;3.10;;;1.90;99.90;;;;;;5093323;28;20047;-75
2022/01/29 09:58:42;;;;;;;7.95;4.30;;;2.00;99.90;;;;;;5091399;28;20107;-80
2022/01/29 10:01:08;;;;;;;6.70;3.30;;;2.10;99.90;;;;;;5087699;28;20031;-78
2022/01/29 10:03:34;;;;;;;7.78;3.25;;;2.10;99.90;;;;;;5061624;28;20107;-78
2022/01/29 10:06:03;;;;;;;5.65;2.83;;;2.20;99.90;;;;;;5051552;28;20132;-78
2022/01/29 10:08:30;;;;;;;3.72;2.40;;;2.30;99.90;;;;;;5051705;28;20023;-79
2022/01/29 10:10:59;;;;;;;6.30;2.83;;;2.60;99.90;;;;;;5048552;28;20032;-79
2022/01/29 10:13:37;;;;;;;4.55;2.63;;;2.80;99.90;;;;;;5052973;28;20067;-80
2022/01/29 10:16:10;;;;;;;8.43;2.65;;;3.10;99.90;;;;;;5070478;28;20390;-80
2022/01/29 10:18:36;;;;;;;4.40;3.22;;;3.00;99.90;;;;;;5080883;28;20028;-79
2022/01/29 10:21:20;;;;;;;4.78;3.55;;;3.10;99.90;;;;;;5068738;28;20036;-76
2022/01/29 10:23:46;;;;;;;5.13;2.22;;;3.00;99.90;;;;;;5082234;28;20021;-77
2022/01/29 10:26:29;;;;;;;5.50;2.78;;;2.90;99.90;;;;;;5073597;28;20039;-76
2022/01/29 10:28:56;;;;;;;4.40;2.65;;;2.80;99.90;;;;;;5075662;28;20024;-77
2022/01/29 10:31:25;;;;;;;3.92;2.05;;;2.80;99.90;;;;;;5081093;28;20055;-75
2022/01/29 10:33:51;;;;;;;4.53;3.10;;;3.00;99.90;;;;;;5085442;28;20580;-76
2022/01/29 10:36:19;;;;;;;4.22;2.15;;;3.00;99.90;;;;;;5082998;28;20043;-77
2022/01/29 10:38:57;;;;;;;6.60;3.60;;;3.30;99.90;;;;;;5072562;28;20382;-79
2022/01/29 10:41:25;;;;;;;5.80;2.97;;;1.40;99.90;;;;;;5063026;28;20033;-78
2022/01/29 10:46:42;;;;;;;6.25;2.63;;;3.40;99.90;;;;;;5048937;28;20389;-77
2022/01/29 10:49:08;;;;;;;5.55;2.95;;;3.40;99.90;;;;;;5048648;28;20029;-77
2022/01/29 10:51:35;;;;;;;6.00;2.40;;;3.50;99.90;;;;;;5062525;28;20021;-81
2022/01/29 10:54:18;;;;;;;3.92;2.30;;;3.60;99.90;;;;;;5049684;28;20187;-78
2022/01/29 10:57:00;;;;;;;4.10;2.47;;;3.80;99.90;;;;;;5048920;28;20017;-77
2022/01/29 10:59:28;;;;;;;3.90;2.10;;;4.10;99.90;;;;;;5050463;28;20037;-78
2022/01/29 11:01:59;;;;;;;3.97;2.08;;;4.40;99.90;;;;;;5050894;28;20063;-79
2022/01/29 11:04:27;;;;;;;4.72;2.40;;;4.50;99.90;;;;;;5049503;28;20362;-76
2022/01/29 11:06:55;;;;;;;3.55;1.95;;;4.50;99.90;;;;;;5048133;28;20021;-78
2022/01/29 11:09:21;;;;;;;3.70;2.33;;;4.30;99.90;;;;;;5049854;28;20086;-77
2022/01/29 11:11:47;;;;;;;4.43;2.22;;;4.20;99.90;;;;;;5049877;28;20135;-77
2022/01/29 11:14:16;;;;;;;3.90;1.90;;;4.10;99.90;;;;;;5049197;28;20100;-77
2022/01/29 11:16:44;;;;;;;4.88;2.15;;;4.40;99.90;;;;;;5049888;28;20021;-77
2022/01/29 11:19:11;;;;;;;4.00;1.75;;;4.80;99.90;;;;;;5051208;28;20108;-77
2022/01/29 11:21:37;;;;;;;3.40;2.03;;;5.00;99.90;;;;;;5051097;28;20028;-77
2022/01/29 11:24:06;;;;;;;1.75;1.48;;;4.90;99.90;;;;;;5053282;28;20028;-80
2022/01/29 11:26:32;;;;;;;4.27;2.03;;;5.30;99.90;;;;;;5053747;28;20024;-78
2022/01/29 11:29:23;;;;;;;4.60;2.30;;;5.10;99.90;;;;;;5052403;28;20414;-78
2022/01/29 11:32:38;;;;;;;3.75;2.00;;;5.30;99.90;;;;;;5053979;28;20064;-79
2022/01/29 11:35:25;;;;;;;3.83;1.80;;;5.50;99.90;;;;;;5072071;28;20097;-78
2022/01/29 11:38:02;;;;;;;3.42;1.88;;;5.80;99.40;;;;;;5060782;28;20017;-79
2022/01/29 11:40:56;;;;;;;2.80;1.77;;;5.30;96.80;;;;;;5061544;28;20055;-78
2022/01/29 11:43:24;;;;;;;4.93;2.10;;;5.50;99.50;;;;;;5055780;28;20379;-78
2022/01/29 11:46:15;;;;;;;3.17;2.25;;;5.70;98.50;;;;;;5060805;28;20072;-77
2022/01/29 11:48:56;;;;;;;3.83;2.25;;;5.80;97.20;;;;;;5057602;28;20169;-78
2022/01/29 11:51:59;;;;;;;5.70;2.45;;;6.00;98.00;;;;;;5073230;28;20052;-78
2022/01/29 11:54:26;;;;;;;2.15;1.77;;;5.60;98.30;;;;;;4999027;28;20057;-77
2022/01/29 11:57:07;;;;;;;5.15;2.33;;;5.50;98.10;;;;;;5056145;28;20036;-79
2022/01/29 11:59:34;;;;;;;3.88;2.25;;;5.50;99.40;;;;;;5067514;28;20447;-78
2022/01/29 12:02:03;;;;;;;2.22;1.88;;;5.10;98.30;;;;;;5067862;28;20020;-78
2022/01/29 12:05:00;;;;;;;3.22;2.03;;;5.20;98.70;;;;;;5066459;28;20016;-78
2022/01/29 12:09:58;;;;;;;3.17;2.10;;;5.20;97.20;;;;;;5068910;28;20052;-78
2022/01/29 12:12:34;;;;;;;2.33;1.85;;;5.30;97.50;;;;;;5069367;28;20512;-78
2022/01/29 12:15:09;;;;;;;2.85;2.45;;;5.50;98.10;;;;;;5070985;28;20048;-78
2022/01/29 12:17:36;;;;;;;3.85;1.73;;;5.90;96.30;;;;;;5069512;28;20024;-77
2022/01/29 12:20:05;;;;;;;3.53;1.92;;;8.70;97.60;;;;;;5070827;28;20447;-78
2022/01/29 12:22:36;;;;;;;2.80;2.00;;;6.00;95.00;;;;;;5072009;28;20028;-78
2022/01/29 12:25:05;;;;;;;2.15;1.85;;;6.30;94.60;;;;;;5069591;28;20404;-78
2022/01/29 12:27:41;;;;;;;3.10;2.17;;;6.30;93.20;;;;;;5068279;28;20116;-78
2022/01/29 12:30:07;;;;;;;2.65;1.95;;;6.20;91.00;;;;;;5067079;28;20066;-78
2022/01/29 12:32:33;;;;;;;2.58;1.55;;;6.10;91.10;;;;;;5068198;28;20378;-78
2022/01/29 12:34:59;;;;;;;2.28;1.75;;;6.10;90.50;;;;;;5073193;28;20542;-78
2022/01/29 12:37:25;;;;;;;2.42;2.20;;;6.40;90.40;;;;;;5053263;28;20055;-77
2022/01/29 12:40:06;;;;;;;3.88;1.83;;;6.50;90.10;;;;;;5046133;28;20131;-78
2022/01/29 12:42:43;;;;;;;2.28;1.92;;;6.70;90.00;;;;;;5041582;28;20029;-78
2022/01/29 12:45:10;;;;;;;5.72;2.03;;;5.20;86.30;;;;;;5028478;28;20028;-79
2022/01/29 12:47:36;;;;;;;2.22;1.88;;;6.90;89.80;;;;;;5027872;28;20087;-80
2022/01/29 12:50:03;;;;;;;3.40;2.03;;;7.00;86.70;;;;;;5028548;28;20481;-77
2022/01/29 12:52:30;;;;;;;4.85;1.98;;;6.70;85.50;;;;;;5047809;28;20017;-78
2022/01/29 12:54:58;;;;;;;2.92;1.52;;;6.40;87.50;;;;;;5045614;28;20025;-78
2022/01/29 12:57:42;;;;;;;3.22;2.13;;;6.40;88.80;;;;;;5029086;28;20028;-78
2022/01/29 13:00:10;;;;;;;2.80;2.10;;;6.30;89.60;;;;;;5026722;28;20824;-78
2022/01/29 13:02:36;;;;;;;4.38;2.25;;;6.20;89.90;;;;;;5027867;28;20131;-79
2022/01/29 13:05:02;;;;;;;1.65;1.45;;;6.30;90.40;;;;;;5047054;28;20072;-79
2022/01/29 13:07:28;;;;;;;1.80;1.65;;;6.40;90.80;;;;;;5045800;28;20362;-78